.
WxDataArchive / Data Records for 2007-07-27
2007-07-26 July 2007 2007-07-28

Data Records for Friday, 27 July 2007

Time	Temp	Chill	HIndex	Humid	Dewpt	 Wind 	HiWind	WindDir	Rain 	Barom 
-----	----	-----	------	-----	-----	------	------	-------	-----	----- 
00:00	71.8	71.8	71.8	84	66.7	0	2	248	0.00	29.841 
00:05	72.0	72.0	72.0	83	66.5	1	2	248	0.00	29.837 
00:10	72.3	72.3	72.3	82	66.5	1	3	248	0.00	29.837 
00:15	72.3	72.3	72.3	82	66.5	0	2	248	0.00	29.837 
00:20	72.3	72.3	72.3	82	66.5	0	2	248	0.00	29.834 
00:25	72.5	72.5	72.5	82	66.7	0	2	248	0.00	29.835 
00:30	72.5	72.5	72.5	81	66.3	1	3	248	0.00	29.835 
00:35	72.5	72.5	72.5	81	66.3	0	4	225	0.00	29.835 
00:40	72.7	72.7	72.7	81	66.5	0	2	248	0.00	29.834 
00:45	72.7	72.7	72.7	81	66.5	1	2	248	0.00	29.833 
00:50	72.8	72.8	72.8	81	66.6	1	4	248	0.00	29.836 
00:55	72.8	72.8	72.8	81	66.6	1	3	248	0.00	29.834 
01:00	72.8	72.8	72.8	81	66.6	1	3	248	0.00	29.832 
01:05	72.7	72.7	72.7	81	66.5	1	6	248	0.00	29.830 
01:10	72.5	72.5	72.5	82	66.7	1	3	248	0.00	29.830 
01:15	72.3	72.3	72.3	82	66.5	0	2	248	0.00	29.828 
01:20	72.1	72.1	72.1	83	66.6	1	6	248	0.00	29.825 
01:25	72.1	72.1	72.1	83	66.6	0	3	292	0.00	29.828 
01:30	72.0	72.0	72.0	83	66.5	0	2	315	0.00	29.826 
01:35	72.0	72.0	72.0	83	66.5	1	5	248	0.00	29.826 
01:40	72.0	72.0	72.0	83	66.5	1	5	248	0.00	29.824 
01:45	72.1	72.1	72.1	83	66.6	1	4	248	0.00	29.821 
01:50	72.1	72.1	72.1	83	66.6	1	3	248	0.00	29.816 
01:55	72.1	72.1	72.1	83	66.6	1	3	248	0.00	29.815 
02:00	72.1	72.1	72.1	84	67.0	1	3	248	0.00	29.814 
02:05	72.0	72.0	72.0	84	66.9	1	5	248	0.00	29.811 
02:10	72.0	72.0	72.0	84	66.9	1	5	248	0.00	29.810 
02:15	72.0	72.0	72.0	84	66.9	1	2	248	0.00	29.808 
02:20	72.0	72.0	72.0	84	66.9	0	2	248	0.00	29.807 
02:25	71.8	71.8	71.8	84	66.7	1	2	270	0.00	29.804 
02:30	71.8	71.8	71.8	84	66.7	1	3	270	0.00	29.798 
02:35	71.8	71.8	71.8	85	67.0	1	2	270	0.00	29.796 
02:40	71.6	71.6	71.6	85	66.8	1	3	248	0.00	29.796 
02:45	71.6	71.6	71.6	85	66.8	0	2	292	0.00	29.791 
02:50	71.5	71.5	71.5	86	67.1	1	3	248	0.00	29.787 
02:55	71.5	71.5	71.5	86	67.1	0	2	248	0.00	29.785 
03:00	71.5	71.5	71.5	86	67.1	0	2	248	0.00	29.783 
03:05	71.5	71.5	71.5	86	67.1	0	3	248	0.00	29.782 
03:10	71.3	71.3	71.3	86	66.9	0	1	248	0.00	29.780 
03:15	71.3	71.3	71.3	87	67.2	0	1	248	0.00	29.779 
03:20	71.3	71.3	71.3	87	67.2	0	2	248	0.00	29.779 
03:25	71.3	71.3	71.3	87	67.2	0	1	248	0.00	29.780 
03:30	71.1	71.1	71.1	87	67.0	0	1	248	0.00	29.780 
03:35	71.1	71.1	71.1	87	67.0	0	1	248	0.00	29.780 
03:40	71.1	71.1	71.1	87	67.0	0	1	248	0.00	29.779 
03:45	71.1	71.1	71.1	87	67.0	0	1	248	0.00	29.778 
03:50	70.9	70.9	70.9	87	66.8	0	1	248	0.00	29.779 
03:55	70.9	70.9	70.9	88	67.2	0	0	---	0.00	29.779 
04:00	70.8	70.8	70.8	88	67.1	0	0	---	0.00	29.777 
04:05	70.8	70.8	70.8	88	67.1	0	0	---	0.00	29.774 
04:10	70.6	70.6	70.6	88	66.9	0	0	---	0.00	29.769 
04:15	70.4	70.4	70.4	88	66.7	0	0	---	0.00	29.771 
04:20	70.3	70.3	70.3	89	66.9	0	0	---	0.00	29.771 
04:25	70.3	70.3	70.3	89	66.9	0	0	---	0.00	29.774 
04:30	70.1	70.1	70.1	89	66.7	0	0	---	0.00	29.777 
04:35	69.9	69.9	69.9	90	66.8	0	0	---	0.00	29.779 
04:40	69.9	69.9	69.9	90	66.8	0	0	---	0.00	29.779 
04:45	69.8	69.8	69.8	90	66.7	0	0	---	0.00	29.781 
04:50	69.6	69.6	69.6	91	66.8	0	0	---	0.00	29.780 
04:55	69.6	69.6	69.6	91	66.8	0	0	---	0.00	29.780 
05:00	69.6	69.6	69.6	91	66.8	0	0	---	0.00	29.779 
05:05	69.4	69.4	69.4	92	67.0	0	0	---	0.00	29.778 
05:10	69.4	69.4	69.4	92	67.0	0	0	---	0.00	29.776 
05:15	69.4	69.4	69.4	92	67.0	0	0	---	0.00	29.778 
05:20	69.4	69.4	69.4	92	67.0	0	0	---	0.00	29.779 
05:25	69.3	69.3	69.3	92	66.9	0	0	---	0.00	29.778 
05:30	69.3	69.3	69.3	92	66.9	0	0	---	0.00	29.779 
05:35	69.3	69.3	69.3	92	66.9	0	0	---	0.00	29.780 
05:40	69.3	69.3	69.3	92	66.9	0	0	---	0.00	29.780 
05:45	69.4	69.4	69.4	92	67.0	0	0	---	0.00	29.781 
05:50	69.6	69.6	69.6	92	67.2	0	0	---	0.00	29.781 
05:55	69.8	69.8	69.8	92	67.4	0	1	248	0.00	29.780 
06:00	69.9	69.9	69.9	91	67.1	0	0	---	0.00	29.780 
06:05	70.1	70.1	70.1	91	67.3	0	0	---	0.00	29.781 
06:10	70.1	70.1	70.1	91	67.3	0	0	---	0.00	29.781 
06:15	70.3	70.3	70.3	90	67.2	0	0	---	0.00	29.781 
06:20	70.4	70.4	70.4	90	67.3	0	0	---	0.00	29.783 
06:25	70.4	70.4	70.4	90	67.3	0	1	248	0.00	29.784 
06:30	70.4	70.4	70.4	90	67.3	0	0	---	0.00	29.786 
06:35	70.6	70.6	70.6	90	67.5	0	0	---	0.00	29.783 
06:40	70.6	70.6	70.6	90	67.5	0	1	248	0.00	29.785 
06:45	70.8	70.8	70.8	89	67.4	0	1	248	0.00	29.784 
06:50	70.9	70.9	70.9	89	67.5	0	1	248	0.00	29.783 
06:55	71.1	71.1	71.1	88	67.4	0	1	248	0.00	29.783 
07:00	71.3	71.3	71.3	88	67.6	0	3	248	0.00	29.782 
07:05	71.5	71.5	71.5	87	67.4	0	3	248	0.00	29.782 
07:10	71.6	71.6	71.6	86	67.2	1	3	248	0.00	29.783 
07:15	71.8	71.8	71.8	86	67.4	0	2	248	0.00	29.784 
07:20	72.0	72.0	72.0	85	67.2	0	2	225	0.00	29.788 
07:25	72.1	72.1	72.1	85	67.3	0	1	225	0.00	29.787 
07:30	72.1	72.1	72.1	85	67.3	0	1	225	0.00	29.782 
07:35	72.3	72.3	72.3	84	67.2	0	1	225	0.00	29.781 
07:40	72.5	72.5	72.5	84	67.4	0	1	225	0.00	29.782 
07:45	72.8	72.8	72.8	84	67.7	0	1	225	0.00	29.783 
07:50	73.2	73.2	73.2	83	67.7	0	2	270	0.00	29.785 
07:55	73.5	73.5	73.5	83	68.0	0	2	270	0.00	29.782 
08:00	74.0	74.0	74.0	81	67.8	0	2	270	0.00	29.779 
08:05	74.2	74.2	74.2	81	68.0	0	3	248	0.00	29.781 
08:10	74.6	74.6	74.6	80	68.0	0	1	248	0.00	29.782 
08:15	74.7	74.7	74.7	79	67.7	1	3	248	0.00	29.782 
08:20	74.9	74.9	74.9	79	67.9	1	4	248	0.00	29.780 
08:25	75.1	75.1	75.8	79	68.1	0	2	248	0.00	29.781 
08:30	75.3	75.3	76.2	78	68.0	1	2	248	0.00	29.781 
08:35	75.8	75.8	76.8	79	68.8	0	1	248	0.00	29.778 
08:40	76.5	76.5	77.9	77	68.7	1	3	248	0.00	29.779 
08:45	77.4	77.4	79.3	74	68.4	1	4	248	0.00	29.777 
08:50	78.3	78.3	80.6	73	68.9	1	3	248	0.00	29.777 
08:55	79.0	79.0	81.6	72	69.2	2	3	248	0.00	29.775 
09:00	79.9	79.9	82.8	70	69.2	1	4	248	0.00	29.774 
09:05	80.5	80.5	83.6	69	69.4	2	5	248	0.00	29.774 
09:10	80.7	80.7	83.4	65	67.8	2	4	292	0.00	29.774 
09:15	80.3	80.3	83.0	67	68.3	3	6	270	0.00	29.775 
09:20	79.8	79.8	82.4	68	68.3	1	4	270	0.00	29.774 
09:25	79.4	79.4	81.8	68	67.9	2	4	270	0.00	29.773 
09:30	79.4	79.4	81.8	68	67.9	1	3	270	0.00	29.771 
09:35	79.6	79.6	82.3	70	68.9	1	2	270	0.00	29.768 
09:40	80.5	80.5	83.6	69	69.4	1	3	270	0.00	29.769 
09:45	80.5	80.5	83.3	67	68.5	1	4	248	0.00	29.773 
09:50	80.1	80.1	82.7	67	68.1	1	3	248	0.00	29.772 
09:55	80.1	80.1	82.7	67	68.1	2	4	248	0.00	29.770 
10:00	80.3	80.3	83.2	68	68.8	1	3	270	0.00	29.769 
10:05	80.5	80.5	83.3	67	68.5	1	3	270	0.00	29.769 
10:10	80.9	80.9	84.0	67	68.9	2	4	270	0.00	29.767 
10:15	81.2	81.2	84.5	67	69.2	1	3	270	0.00	29.770 
10:20	81.4	81.4	84.8	67	69.4	1	3	248	0.00	29.766 
10:25	81.2	81.2	84.3	66	68.7	1	3	248	0.00	29.766 
10:30	80.9	80.9	83.8	66	68.4	1	3	292	0.00	29.767 
10:35	80.5	80.5	83.3	67	68.5	1	3	315	0.00	29.769 
10:40	79.9	79.9	82.6	68	68.4	1	3	270	0.00	29.770 
10:45	79.8	79.8	82.5	69	68.7	1	2	270	0.00	29.772 
10:50	79.8	79.8	82.5	69	68.7	1	2	270	0.00	29.772 
10:55	80.3	80.3	83.3	69	69.2	1	2	270	0.00	29.772 
11:00	80.9	80.9	84.1	68	69.3	1	4	270	0.00	29.772 
11:05	80.9	80.9	84.0	67	68.9	1	4	248	0.00	29.771 
11:10	80.9	80.9	84.1	68	69.3	1	3	248	0.00	29.772 
11:15	81.1	81.1	84.5	68	69.5	2	4	270	0.00	29.769 
11:20	81.4	81.4	85.0	68	69.8	1	3	270	0.00	29.766 
11:25	81.8	81.8	85.3	66	69.3	2	3	270	0.00	29.760 
11:30	81.8	81.8	85.5	67	69.7	1	2	225	0.00	29.761 
11:35	82.0	82.0	85.8	67	69.9	1	3	248	0.00	29.761 
11:40	82.2	82.2	85.9	66	69.7	1	2	270	0.00	29.760 
11:45	82.2	82.2	85.7	65	69.2	1	3	270	0.00	29.759 
11:50	82.4	82.4	86.5	67	70.3	1	3	270	0.00	29.759 
11:55	82.8	82.8	86.5	64	69.3	1	4	315	0.00	29.759 
12:00	83.0	83.0	86.9	64	69.5	1	3	338	0.00	29.760 
12:05	82.6	82.6	86.2	64	69.2	1	5	270	0.00	29.758 
12:10	82.6	82.6	86.4	65	69.6	1	3	270	0.00	29.757 
12:15	83.0	83.0	86.9	64	69.5	1	4	270	0.00	29.758 
12:20	82.6	82.6	86.2	64	69.2	2	3	315	0.00	29.758 
12:25	82.8	82.8	86.5	64	69.3	1	2	315	0.00	29.757 
12:30	83.0	83.0	86.9	64	69.5	1	3	315	0.00	29.756 
12:35	83.4	83.4	87.3	63	69.5	1	3	292	0.00	29.754 
12:40	83.4	83.4	87.0	62	69.0	1	2	270	0.00	29.750 
12:45	83.0	83.0	86.9	64	69.5	1	2	270	0.00	29.750 
12:50	83.4	83.4	87.8	65	70.4	1	2	270	0.00	29.749 
12:55	83.8	83.8	87.5	61	68.9	1	2	270	0.00	29.746 
13:00	83.8	83.8	88.3	64	70.3	0	2	315	0.00	29.743 
13:05	84.0	84.0	87.3	59	68.1	0	1	315	0.00	29.743 
13:10	84.7	84.7	88.7	60	69.2	0	2	315	0.00	29.743 
13:15	84.9	84.9	88.8	59	68.9	1	4	315	0.00	29.743 
13:20	84.9	84.9	89.1	60	69.4	1	2	248	0.00	29.742 
13:25	84.9	84.9	88.8	59	68.9	1	4	90	0.00	29.743 
13:30	85.1	85.1	88.8	58	68.6	1	2	225	0.00	29.743 
13:35	85.5	85.5	89.2	57	68.5	0	2	225	0.00	29.741 
13:40	85.3	85.3	89.2	58	68.8	1	3	135	0.00	29.741 
13:45	84.7	84.7	88.7	60	69.2	0	2	135	0.00	29.741 
13:50	84.9	84.9	90.0	63	70.9	0	2	202	0.00	29.741 
13:55	85.1	85.1	88.8	58	68.6	1	3	202	0.00	29.741 
14:00	84.9	84.9	88.8	59	68.9	1	5	248	0.00	29.740 
14:05	84.3	84.3	89.2	64	70.8	1	7	270	0.00	29.740 
14:10	84.1	84.1	89.1	65	71.0	1	7	22	0.00	29.739 
14:15	83.8	83.8	88.6	65	70.7	1	4	248	0.00	29.737 
14:20	83.4	83.4	87.8	65	70.4	2	5	248	0.00	29.739 
14:25	82.8	82.8	87.0	66	70.3	2	5	248	0.00	29.738 
14:30	82.4	82.4	86.1	65	69.4	2	6	248	0.00	29.737 
14:35	82.4	82.4	86.3	66	69.9	2	6	270	0.00	29.735 
14:40	82.4	82.4	86.1	65	69.4	1	4	270	0.00	29.735 
14:45	83.0	83.0	87.1	65	70.0	2	4	270	0.00	29.734 
14:50	84.0	84.0	88.6	64	70.5	1	4	248	0.00	29.734 
14:55	84.7	84.7	89.3	62	70.2	1	5	270	0.00	29.730 
15:00	84.5	84.5	88.7	61	69.5	2	5	248	0.00	29.733 
15:05	84.3	84.3	88.6	62	69.8	2	6	270	0.00	29.729 
15:10	84.5	84.5	89.0	62	70.0	1	4	270	0.00	29.731 
15:15	84.9	84.9	89.7	62	70.4	2	4	270	0.00	29.727 
15:20	84.9	84.9	89.1	60	69.4	2	4	270	0.00	29.727 
15:25	84.9	84.9	89.7	62	70.4	1	3	270	0.00	29.727 
15:30	85.1	85.1	89.8	61	70.1	1	3	270	0.00	29.725 
15:35	84.7	84.7	89.3	62	70.2	2	4	270	0.00	29.724 
15:40	84.7	84.7	89.6	63	70.7	1	3	270	0.00	29.719 
15:45	84.9	84.9	90.4	64	71.3	1	4	270	0.00	29.718 
15:50	84.9	84.9	89.4	61	69.9	1	4	270	0.00	29.720 
15:55	84.7	84.7	89.3	62	70.2	1	3	248	0.00	29.719 
16:00	85.1	85.1	90.1	62	70.6	1	3	248	0.00	29.720 
16:05	84.9	84.9	89.7	62	70.4	1	4	270	0.00	29.721 
16:10	84.5	84.5	89.6	64	71.0	1	3	270	0.00	29.722 
16:15	84.7	84.7	90.0	64	71.1	0	3	270	0.00	29.720 
16:20	84.9	84.9	89.1	60	69.4	1	3	270	0.00	29.718 
16:25	84.5	84.5	88.7	61	69.5	2	3	270	0.00	29.719 
16:30	83.8	83.8	87.7	62	69.4	1	3	270	0.00	29.720 
16:35	83.2	83.2	87.2	64	69.7	1	3	248	0.00	29.721 
16:40	83.4	83.4	87.6	64	69.9	1	3	248	0.00	29.718 
16:45	84.0	84.0	87.8	61	69.1	2	4	270	0.00	29.714 
16:50	84.3	84.3	88.3	61	69.4	2	4	270	0.00	29.713 
16:55	84.0	84.0	87.8	61	69.1	2	5	248	0.00	29.713 
17:00	83.4	83.4	86.8	61	68.5	2	4	270	0.00	29.713 
17:05	83.0	83.0	86.4	62	68.6	2	4	270	0.00	29.715 
17:10	82.8	82.8	86.5	64	69.3	2	4	292	0.00	29.718 
17:15	82.6	82.6	86.2	64	69.2	1	4	270	0.00	29.719 
17:20	82.6	82.6	85.7	62	68.2	1	4	270	0.00	29.720 
17:25	82.6	82.6	85.5	61	67.8	2	4	292	0.00	29.725 
17:30	82.4	82.4	85.0	60	67.1	2	4	248	0.00	29.721 
17:35	82.2	82.2	84.7	60	66.9	2	4	270	0.00	29.720 
17:40	82.0	82.0	84.2	59	66.2	1	3	270	0.00	29.724 
17:45	81.8	81.8	84.3	61	67.0	1	3	270	0.00	29.723 
17:50	81.8	81.8	84.5	62	67.5	1	4	270	0.00	29.721 
17:55	81.8	81.8	84.5	62	67.5	2	4	270	0.00	29.720 
18:00	81.4	81.4	83.9	62	67.1	1	3	270	0.00	29.724 
18:05	81.1	81.1	83.6	63	67.3	2	4	270	0.00	29.723 
18:10	81.2	81.2	83.6	62	66.9	1	3	270	0.00	29.724 
18:15	81.2	81.2	83.6	62	66.9	1	4	270	0.00	29.722 
18:20	81.1	81.1	83.6	63	67.3	2	4	248	0.00	29.722 
18:25	80.9	80.9	83.2	62	66.6	1	3	270	0.00	29.724 
18:30	80.7	80.7	82.9	62	66.4	1	3	248	0.00	29.729 
18:35	80.7	80.7	83.1	63	66.9	2	5	270	0.00	29.731 
18:40	80.5	80.5	83.1	65	67.6	1	4	270	0.00	29.731 
18:45	80.1	80.1	82.9	68	68.6	1	3	248	0.00	29.733 
18:50	79.9	79.9	82.6	68	68.4	2	3	248	0.00	29.732 
18:55	79.6	79.6	82.1	68	68.1	1	3	270	0.00	29.731 
19:00	79.2	79.2	81.5	68	67.7	1	3	270	0.00	29.732 
19:05	78.8	78.8	81.0	68	67.3	1	3	315	0.00	29.732 
19:10	78.6	78.6	80.7	68	67.1	1	3	292	0.00	29.732 
19:15	78.5	78.5	80.7	69	67.5	1	2	270	0.00	29.732 
19:20	78.3	78.3	80.4	70	67.7	0	1	270	0.00	29.733 
19:25	78.1	78.1	80.2	71	67.9	0	1	270	0.00	29.739 
19:30	77.9	77.9	79.9	71	67.7	0	2	270	0.00	29.744 
19:35	77.7	77.7	79.7	71	67.5	0	2	270	0.00	29.745 
19:40	77.6	77.6	79.5	71	67.4	0	2	270	0.00	29.747 
19:45	77.4	77.4	79.3	72	67.6	0	1	270	0.00	29.749 
19:50	77.0	77.0	78.8	71	66.9	0	2	270	0.00	29.749 
19:55	76.7	76.7	78.4	72	67.0	0	1	270	0.00	29.749 
20:00	76.5	76.5	78.1	72	66.8	0	1	270	0.00	29.753 
20:05	76.3	76.3	77.8	73	67.0	0	2	270	0.00	29.748 
20:10	76.1	76.1	77.6	73	66.8	0	1	270	0.00	29.748 
20:15	76.0	76.0	77.5	73	66.7	0	1	270	0.00	29.746 
20:20	75.8	75.8	77.3	73	66.5	0	1	270	0.00	29.746 
20:25	75.6	75.6	77.0	74	66.7	0	1	270	0.00	29.747 
20:30	75.4	75.4	76.7	74	66.5	0	1	270	0.00	29.751 
20:35	75.3	75.3	76.5	75	66.8	0	1	270	0.00	29.749 
20:40	75.1	75.1	76.2	76	67.0	0	1	292	0.00	29.758 
20:45	74.9	74.9	74.9	77	67.2	0	1	292	0.00	29.760 
20:50	74.7	74.7	74.7	77	67.0	0	0	---	0.00	29.762 
20:55	74.6	74.6	74.6	78	67.3	0	2	292	0.00	29.764 
21:00	74.4	74.4	74.4	79	67.4	0	0	---	0.00	29.763 
21:05	74.0	74.0	74.0	79	67.1	0	0	---	0.00	29.764 
21:10	73.9	73.9	73.9	80	67.3	0	0	---	0.00	29.764 
21:15	73.7	73.7	73.7	81	67.5	0	0	---	0.00	29.766 
21:20	73.7	73.7	73.7	81	67.5	0	0	---	0.00	29.764 
21:25	73.5	73.5	73.5	82	67.7	0	0	---	0.00	29.762 
21:30	73.5	73.5	73.5	82	67.7	0	0	---	0.00	29.763 
21:35	73.5	73.5	73.5	82	67.7	0	0	---	0.00	29.764 
21:40	73.7	73.7	73.7	82	67.9	0	1	292	0.00	29.764 
21:45	73.7	73.7	73.7	82	67.9	0	0	---	0.00	29.763 
21:50	73.7	73.7	73.7	82	67.9	0	1	292	0.00	29.761 
21:55	73.7	73.7	73.7	82	67.9	0	1	292	0.00	29.761 
22:00	73.7	73.7	73.7	82	67.9	0	1	292	0.00	29.761 
22:05	73.9	73.9	73.9	82	68.0	0	1	292	0.00	29.762 
22:10	73.9	73.9	73.9	82	68.0	0	1	292	0.00	29.761 
22:15	73.9	73.9	73.9	82	68.0	0	0	---	0.00	29.762 
22:20	73.7	73.7	73.7	83	68.2	0	0	---	0.00	29.763 
22:25	73.5	73.5	73.5	83	68.0	0	0	---	0.00	29.764 
22:30	73.3	73.3	73.3	84	68.2	0	1	292	0.00	29.762 
22:35	73.2	73.2	73.2	84	68.1	0	1	292	0.00	29.763 
22:40	73.2	73.2	73.2	84	68.1	0	1	292	0.00	29.765 
22:45	73.0	73.0	73.0	84	67.9	0	0	---	0.00	29.762 
22:50	72.8	72.8	72.8	85	68.0	0	0	---	0.00	29.765 
22:55	72.7	72.7	72.7	85	67.9	0	0	---	0.00	29.766 
23:00	72.7	72.7	72.7	86	68.3	0	0	---	0.00	29.764 
23:05	72.5	72.5	72.5	86	68.1	0	0	---	0.00	29.760 
23:10	72.5	72.5	72.5	87	68.4	0	0	---	0.00	29.759 
23:15	72.3	72.3	72.3	87	68.2	0	0	---	0.00	29.761 
23:20	72.3	72.3	72.3	87	68.2	0	0	---	0.00	29.761 
23:25	72.1	72.1	72.1	87	68.0	0	0	---	0.00	29.762 
23:30	72.1	72.1	72.1	88	68.3	0	1	292	0.00	29.761 
23:35	72.0	72.0	72.0	88	68.2	0	0	---	0.00	29.760 
23:40	72.0	72.0	72.0	88	68.2	0	0	---	0.00	29.759 
23:45	72.0	72.0	72.0	88	68.2	0	0	---	0.00	29.758 
23:50	71.8	71.8	71.8	88	68.0	0	0	---	0.00	29.756 
23:55	71.6	71.6	71.6	88	67.8	0	0	---	0.00	29.757 

CoCoRaHS
IN-AL-39
A2 Web Hosting
Creative Commons License
GoDaddy
Look for:

loaded 2017-10-17 18:14:21 • last modified 2010-11-18 10:43:29
Privacy PolicyDisclaimer
• wx.awcolley.com is powered by PmWiki v.2002016 •
• all content (unless otherwise noted) © 2017 A W Colley